createdAt,value
2023-01-21T00:01:27.317Z,99309.66
2023-01-21T00:03:54.983Z,99312.31
2023-01-21T00:06:22.351Z,99315.19
2023-01-21T00:08:50.032Z,99308.97
2023-01-21T00:11:17.730Z,99305.50
2023-01-21T00:13:45.182Z,99314.87
2023-01-21T00:16:13.402Z,99312.81
2023-01-21T00:18:41.380Z,99315.84
2023-01-21T00:21:08.794Z,99313.66
2023-01-21T00:23:36.260Z,99324.38
2023-01-21T00:26:07.428Z,99324.56
2023-01-21T00:28:35.953Z,99322.87
2023-01-21T00:31:06.138Z,99326.69
2023-01-21T00:33:34.111Z,99326.34
2023-01-21T00:36:05.730Z,99332.00
2023-01-21T00:38:33.545Z,99325.47
2023-01-21T00:41:10.047Z,99316.47
2023-01-21T00:43:39.421Z,99328.63
2023-01-21T00:46:07.445Z,99331.75
2023-01-21T00:48:35.348Z,99313.63
2023-01-21T00:51:03.559Z,99321.09
2023-01-21T00:53:33.312Z,99313.91
2023-01-21T00:56:12.957Z,99319.44
2023-01-21T00:58:43.409Z,99313.25
2023-01-21T01:01:14.070Z,99315.09
2023-01-21T01:03:42.551Z,99315.87
2023-01-21T01:06:20.096Z,99309.91
2023-01-21T01:08:49.781Z,99312.34
2023-01-21T01:11:17.695Z,99312.94
2023-01-21T01:13:45.151Z,99316.94
2023-01-21T01:16:14.797Z,99314.34
2023-01-21T01:18:42.685Z,99331.31
2023-01-21T01:21:15.623Z,99330.13
2023-01-21T01:23:43.866Z,99339.69
2023-01-21T01:26:14.512Z,99331.31
2023-01-21T01:28:42.226Z,99326.19
2023-01-21T01:31:13.056Z,99337.22
2023-01-21T01:33:40.552Z,99327.19
2023-01-21T01:36:13.818Z,99318.03
2023-01-21T01:38:41.563Z,99320.47
2023-01-21T01:41:09.371Z,99316.28
2023-01-21T01:43:50.735Z,99310.34
2023-01-21T01:46:18.800Z,99313.00
2023-01-21T01:48:50.693Z,99323.56
2023-01-21T01:51:21.507Z,99310.41
2023-01-21T01:53:49.091Z,99312.94
2023-01-21T01:56:16.613Z,99313.00
2023-01-21T01:58:44.625Z,99303.50
2023-01-21T02:01:12.036Z,99307.09
2023-01-21T02:03:45.085Z,99313.56
2023-01-21T02:06:13.463Z,99307.28
2023-01-21T02:08:41.449Z,99309.97
2023-01-21T02:11:17.745Z,99311.91
2023-01-21T02:13:57.368Z,99308.69
2023-01-21T02:16:37.191Z,99299.37
2023-01-21T02:19:46.078Z,99301.28
2023-01-21T02:22:34.973Z,99312.19
2023-01-21T02:25:30.967Z,99298.69
2023-01-21T02:28:08.898Z,99320.66
2023-01-21T02:30:59.590Z,99313.44
2023-01-21T02:33:41.561Z,99309.88
2023-01-21T02:36:33.893Z,99306.81
2023-01-21T02:39:07.053Z,99317.97
2023-01-21T02:41:40.550Z,99321.72
2023-01-21T02:44:36.069Z,99330.47
2023-01-21T02:47:24.856Z,99321.56
2023-01-21T02:50:13.706Z,99319.56
2023-01-21T02:52:41.520Z,99316.03
2023-01-21T02:55:14.763Z,99307.84
2023-01-21T02:57:49.319Z,99299.00
2023-01-21T03:00:55.861Z,99306.41
2023-01-21T03:03:32.301Z,99303.66
2023-01-21T03:06:37.397Z,99304.88
2023-01-21T03:09:25.869Z,99295.03
2023-01-21T03:12:03.218Z,99288.94
2023-01-21T03:14:56.282Z,99296.09
2023-01-21T03:17:52.452Z,99300.34
2023-01-21T03:20:39.800Z,99304.62
2023-01-21T03:23:11.654Z,99303.12
2023-01-21T03:25:40.464Z,99322.47
2023-01-21T03:28:11.824Z,99312.72
2023-01-21T03:30:44.734Z,99308.56
2023-01-21T03:33:12.977Z,99313.69
2023-01-21T03:35:43.259Z,99311.12
2023-01-21T03:38:35.801Z,99325.38
2023-01-21T03:41:14.722Z,99328.25
2023-01-21T03:43:42.138Z,99331.97
2023-01-21T03:46:14.447Z,99344.84
2023-01-21T03:48:44.590Z,99347.81
2023-01-21T03:51:16.784Z,99345.06
2023-01-21T03:53:45.015Z,99344.75
2023-01-21T03:56:12.750Z,99344.47
2023-01-21T03:58:40.087Z,99338.25
2023-01-21T04:01:07.849Z,99346.19
2023-01-21T04:03:35.705Z,99356.47
2023-01-21T04:06:03.098Z,99363.59
2023-01-21T04:08:30.505Z,99361.59
2023-01-21T04:10:58.156Z,99376.75
2023-01-21T04:13:25.561Z,99383.13
2023-01-21T04:15:52.932Z,99379.28
2023-01-21T04:18:20.632Z,99372.38
2023-01-21T04:20:48.077Z,99380.72
2023-01-21T04:23:15.437Z,99383.47
2023-01-21T04:25:43.132Z,99393.47
2023-01-21T04:28:10.588Z,99396.56
2023-01-21T04:30:38.041Z,99389.28
2023-01-21T04:33:05.750Z,99381.56
2023-01-21T04:35:35.267Z,99377.22
2023-01-21T04:38:03.252Z,99382.50
2023-01-21T04:40:30.911Z,99385.56
2023-01-21T04:42:58.328Z,99398.81
2023-01-21T04:45:25.753Z,99405.84
2023-01-21T04:47:53.475Z,99409.47
2023-01-21T04:50:20.918Z,99409.25
2023-01-21T04:52:48.342Z,99407.22
2023-01-21T04:55:16.141Z,99402.62
2023-01-21T04:57:43.617Z,99406.09
2023-01-21T05:00:12.699Z,99406.47
2023-01-21T05:02:40.421Z,99398.31
2023-01-21T05:05:08.332Z,99412.31
2023-01-21T05:07:35.735Z,99411.00
2023-01-21T05:10:03.788Z,99422.75
2023-01-21T05:12:31.342Z,99421.66
2023-01-21T05:14:58.807Z,99419.38
2023-01-21T05:17:26.659Z,99431.44
2023-01-21T05:19:54.020Z,99417.47
2023-01-21T05:22:21.896Z,99428.81
2023-01-21T05:24:49.570Z,99422.13
2023-01-21T05:27:17.076Z,99434.97
2023-01-21T05:29:44.471Z,99432.88
2023-01-21T05:32:12.179Z,99441.88
2023-01-21T05:34:39.598Z,99441.88
2023-01-21T05:37:07.048Z,99443.94
2023-01-21T05:39:34.718Z,99442.38
2023-01-21T05:42:02.132Z,99437.56
2023-01-21T05:44:29.509Z,99444.34
2023-01-21T05:46:57.222Z,99449.88
2023-01-21T05:49:24.608Z,99451.44
2023-01-21T05:51:52.019Z,99456.84
2023-01-21T05:54:19.709Z,99445.28
2023-01-21T05:56:47.090Z,99437.87
2023-01-21T05:59:14.461Z,99451.84
2023-01-21T06:01:42.134Z,99448.31
2023-01-21T06:04:09.979Z,99455.62
2023-01-21T06:06:37.581Z,99461.84
2023-01-21T06:09:05.003Z,99477.38
2023-01-21T06:11:32.746Z,99479.41
2023-01-21T06:14:00.136Z,99477.84
2023-01-21T06:16:27.557Z,99468.34
2023-01-21T06:18:55.237Z,99473.59
2023-01-21T06:21:22.643Z,99474.16
2023-01-21T06:23:50.007Z,99480.34
2023-01-21T06:26:17.925Z,99480.13
2023-01-21T06:28:45.319Z,99486.12
2023-01-21T06:31:12.830Z,99495.03
2023-01-21T06:33:40.563Z,99487.88
2023-01-21T06:36:08.396Z,99500.72
2023-01-21T06:38:36.341Z,99510.97
2023-01-21T06:41:04.175Z,99512.97
2023-01-21T06:43:31.589Z,99515.44
2023-01-21T06:45:59.015Z,99512.06
2023-01-21T06:48:26.687Z,99512.50
2023-01-21T06:50:54.126Z,99510.16
2023-01-21T06:53:21.586Z,99501.03
2023-01-21T06:55:49.269Z,99516.25
2023-01-21T06:58:16.679Z,99512.50
2023-01-21T07:00:44.533Z,99515.38
2023-01-21T07:03:12.262Z,99510.09
2023-01-21T07:05:39.678Z,99511.91
2023-01-21T07:08:08.274Z,99514.31
2023-01-21T07:10:35.993Z,99519.31
2023-01-21T07:13:03.389Z,99526.28
2023-01-21T07:15:30.935Z,99520.91
2023-01-21T07:17:58.907Z,99544.91
2023-01-21T07:20:26.505Z,99554.53
2023-01-21T07:22:53.896Z,99552.84
2023-01-21T07:25:21.586Z,99560.06
2023-01-21T07:27:48.974Z,99575.13
2023-01-21T07:30:20.572Z,99577.28
2023-01-21T07:32:48.652Z,99581.87
2023-01-21T07:35:16.417Z,99598.25
2023-01-21T07:37:43.893Z,99596.13
2023-01-21T07:40:12.073Z,99588.03
2023-01-21T07:42:39.509Z,99597.28
2023-01-21T07:45:07.181Z,99596.84
2023-01-21T07:47:34.878Z,99594.44
2023-01-21T07:50:05.040Z,99604.16
2023-01-21T07:52:32.501Z,99608.53
2023-01-21T07:55:01.705Z,99604.78
2023-01-21T07:57:29.173Z,99609.59
2023-01-21T07:59:56.604Z,99620.28
2023-01-21T08:02:24.570Z,99618.56
2023-01-21T08:04:52.312Z,99628.47
2023-01-21T08:07:19.782Z,99624.84
2023-01-21T08:09:47.282Z,99622.97
2023-01-21T08:12:14.967Z,99620.53
2023-01-21T08:14:42.415Z,99624.22
2023-01-21T08:17:09.853Z,99609.75
2023-01-21T08:19:37.556Z,99629.41
2023-01-21T08:22:05.119Z,99609.28
2023-01-21T08:24:32.994Z,99617.38
2023-01-21T08:27:00.830Z,99618.50
2023-01-21T08:29:28.294Z,99611.91
2023-01-21T08:31:55.688Z,99612.37
2023-01-21T08:34:23.494Z,99618.22
2023-01-21T08:36:50.870Z,99615.91
2023-01-21T08:39:18.288Z,99621.88
2023-01-21T08:41:46.040Z,99634.56
2023-01-21T08:44:13.549Z,99640.63
2023-01-21T08:46:40.971Z,99650.53
2023-01-21T08:49:08.763Z,99647.53
2023-01-21T08:51:36.131Z,99641.66
2023-01-21T08:54:08.041Z,99642.63
2023-01-21T08:56:35.883Z,99646.66
2023-01-21T08:59:03.349Z,99643.41
2023-01-21T09:01:30.765Z,99641.94
2023-01-21T09:04:00.276Z,99643.69
2023-01-21T09:06:29.123Z,99659.53
2023-01-21T09:08:57.147Z,99651.59
2023-01-21T09:11:25.443Z,99653.53
2023-01-21T09:13:52.817Z,99652.06
2023-01-21T09:16:22.613Z,99642.81
2023-01-21T09:18:50.495Z,99648.16
2023-01-21T09:21:17.939Z,99638.22
2023-01-21T09:23:45.528Z,99644.22
2023-01-21T09:26:19.807Z,99637.75
2023-01-21T09:28:52.308Z,99641.44
2023-01-21T09:31:24.316Z,99648.44
2023-01-21T09:33:54.137Z,99640.50
2023-01-21T09:36:24.517Z,99639.09
2023-01-21T09:38:52.259Z,99641.41
2023-01-21T09:41:38.656Z,99650.03
2023-01-21T09:44:29.820Z,99653.31
2023-01-21T09:47:15.164Z,99648.53
2023-01-21T09:49:49.688Z,99645.63
2023-01-21T09:52:27.550Z,99637.59
2023-01-21T09:54:59.053Z,99637.53
2023-01-21T09:57:39.405Z,99650.16
2023-01-21T10:00:44.967Z,99647.00
2023-01-21T10:03:40.561Z,99648.53
2023-01-21T10:06:23.386Z,99653.16
2023-01-21T10:09:21.389Z,99643.09
2023-01-21T10:11:57.412Z,99644.09
2023-01-21T10:14:31.413Z,99645.50
2023-01-21T10:17:27.006Z,99651.56
2023-01-21T10:20:02.031Z,99658.22
2023-01-21T10:22:29.627Z,99654.19
2023-01-21T10:24:59.006Z,99652.91
2023-01-21T10:27:27.538Z,99663.88
2023-01-21T10:29:58.050Z,99648.47
2023-01-21T10:32:27.501Z,99663.28
2023-01-21T10:34:56.409Z,99665.22
2023-01-21T10:37:42.987Z,99665.25
2023-01-21T10:40:43.798Z,99670.97
2023-01-21T10:43:17.141Z,99668.38
2023-01-21T10:45:56.126Z,99657.56
2023-01-21T10:48:37.823Z,99666.53
2023-01-21T10:51:22.173Z,99664.34
2023-01-21T10:54:00.662Z,99669.12
2023-01-21T10:56:34.318Z,99664.81
2023-01-21T10:59:08.599Z,99668.41
2023-01-21T11:01:58.891Z,99656.47
2023-01-21T11:04:28.213Z,99666.28
2023-01-21T11:07:07.959Z,99659.78
2023-01-21T11:09:38.420Z,99656.94
2023-01-21T11:12:06.165Z,99657.50
2023-01-21T11:14:34.102Z,99651.59
2023-01-21T11:17:01.779Z,99659.66
2023-01-21T11:19:33.120Z,99660.22
2023-01-21T11:22:20.947Z,99657.06
2023-01-21T11:24:50.667Z,99658.81
2023-01-21T11:27:19.771Z,99653.25
2023-01-21T11:29:49.268Z,99649.59
2023-01-21T11:32:22.505Z,99650.63
2023-01-21T11:34:52.402Z,99645.25
2023-01-21T11:37:28.117Z,99647.44
2023-01-21T11:39:55.495Z,99639.41
2023-01-21T11:42:24.098Z,99646.78
2023-01-21T11:44:57.682Z,99644.22
2023-01-21T11:47:38.911Z,99642.00
2023-01-21T11:50:38.402Z,99651.06
2023-01-21T11:53:18.981Z,99632.09
2023-01-21T11:55:54.074Z,99628.09
2023-01-21T11:58:36.197Z,99638.91
2023-01-21T12:01:07.908Z,99636.16
2023-01-21T12:03:41.363Z,99637.47
2023-01-21T12:06:10.136Z,99643.22
2023-01-21T12:08:38.849Z,99653.88
2023-01-21T12:11:07.230Z,99644.94
2023-01-21T12:13:37.229Z,99647.09
2023-01-21T12:16:07.708Z,99647.31
2023-01-21T12:19:16.433Z,99643.13
2023-01-21T12:22:24.472Z,99658.81
2023-01-21T12:25:15.203Z,99663.47
2023-01-21T12:27:54.947Z,99658.00
2023-01-21T12:30:33.489Z,99666.78
2023-01-21T12:33:07.679Z,99675.72
2023-01-21T12:35:46.582Z,99671.28
2023-01-21T12:38:19.420Z,99667.88
2023-01-21T12:40:52.850Z,99661.91
2023-01-21T12:43:33.925Z,99674.69
2023-01-21T12:46:27.655Z,99674.38
2023-01-21T12:49:26.407Z,99678.75
2023-01-21T12:52:05.201Z,99688.25
2023-01-21T12:54:46.508Z,99684.31
2023-01-21T12:57:20.731Z,99687.59
2023-01-21T12:59:54.871Z,99679.88
2023-01-21T13:02:48.594Z,99678.84
2023-01-21T13:05:32.946Z,99682.59
2023-01-21T13:08:22.865Z,99685.44
2023-01-21T13:10:56.118Z,99687.25
2023-01-21T13:13:28.916Z,99695.06
2023-01-21T13:16:00.529Z,99697.06
2023-01-21T13:18:36.711Z,99696.41
2023-01-21T13:21:41.917Z,99695.78
2023-01-21T13:24:15.099Z,99698.56
2023-01-21T13:27:05.168Z,99710.34
2023-01-21T13:30:11.622Z,99710.19
2023-01-21T13:32:44.420Z,99716.84
2023-01-21T13:35:41.936Z,99714.28
2023-01-21T13:38:17.662Z,99718.78
2023-01-21T13:41:00.477Z,99716.56
2023-01-21T13:43:37.148Z,99722.75
2023-01-21T13:46:19.119Z,99728.25
2023-01-21T13:48:59.204Z,99723.12
2023-01-21T13:51:40.630Z,99724.34
2023-01-21T13:54:11.723Z,99728.78
2023-01-21T13:56:45.025Z,99740.41
2023-01-21T13:59:31.322Z,99738.78
2023-01-21T14:02:24.020Z,99736.88
2023-01-21T14:05:15.465Z,99740.28
2023-01-21T14:07:48.057Z,99743.84
2023-01-21T14:10:33.661Z,99752.38
2023-01-21T14:13:09.920Z,99744.22
2023-01-21T14:16:08.625Z,99750.69
2023-01-21T14:19:05.291Z,99755.97
2023-01-21T14:22:10.697Z,99751.50
2023-01-21T14:24:41.508Z,99752.00
2023-01-21T14:27:47.557Z,99759.25
2023-01-21T14:30:24.195Z,99766.63
2023-01-21T14:33:01.377Z,99772.19
2023-01-21T14:35:34.221Z,99765.25
2023-01-21T14:38:17.068Z,99775.97
2023-01-21T14:40:49.079Z,99766.81
2023-01-21T14:43:43.286Z,99776.66
2023-01-21T14:46:34.185Z,99781.38
2023-01-21T14:49:10.409Z,99779.50
2023-01-21T14:51:52.249Z,99790.13
2023-01-21T14:54:25.082Z,99774.94
2023-01-21T14:57:19.227Z,99776.41
2023-01-21T14:59:47.750Z,99775.56
2023-01-21T15:02:31.062Z,99781.25
2023-01-21T15:05:03.725Z,99781.38
2023-01-21T15:07:35.795Z,99787.37
2023-01-21T15:10:18.204Z,99780.94
2023-01-21T15:13:02.000Z,99793.78
2023-01-21T15:15:36.908Z,99793.72
2023-01-21T15:18:24.407Z,99804.34
2023-01-21T15:20:58.617Z,99797.78
2023-01-21T15:23:29.425Z,99811.56
2023-01-21T15:26:12.089Z,99808.50
2023-01-21T15:28:49.631Z,99813.38
2023-01-21T15:31:20.430Z,99810.16
2023-01-21T15:33:50.514Z,99817.37
2023-01-21T15:36:31.143Z,99810.13
2023-01-21T15:39:22.657Z,99808.75
2023-01-21T15:42:14.042Z,99817.78
2023-01-21T15:44:58.268Z,99813.66
2023-01-21T15:47:39.008Z,99819.78
2023-01-21T15:50:26.898Z,99820.63
2023-01-21T15:53:09.717Z,99827.56
2023-01-21T15:56:06.639Z,99824.38
2023-01-21T15:59:07.220Z,99832.38
2023-01-21T16:01:38.299Z,99828.28
2023-01-21T16:04:28.222Z,99839.81
2023-01-21T16:07:08.875Z,99846.69
2023-01-21T16:09:46.779Z,99847.25
2023-01-21T16:12:17.396Z,99851.22
2023-01-21T16:15:01.260Z,99849.09
2023-01-21T16:17:45.186Z,99844.50
2023-01-21T16:20:13.609Z,99852.25
2023-01-21T16:22:43.373Z,99854.19
2023-01-21T16:25:15.292Z,99863.87
2023-01-21T16:27:49.227Z,99863.25
2023-01-21T16:30:21.598Z,99860.31
2023-01-21T16:33:08.373Z,99876.44
2023-01-21T16:35:52.457Z,99867.75
2023-01-21T16:38:24.131Z,99870.47
2023-01-21T16:41:14.733Z,99872.59
2023-01-21T16:43:49.863Z,99866.63
2023-01-21T16:46:22.307Z,99872.78
2023-01-21T16:48:52.092Z,99874.13
2023-01-21T16:51:23.734Z,99869.19
2023-01-21T16:53:53.728Z,99869.16
2023-01-21T16:56:29.661Z,99864.84
2023-01-21T16:58:57.727Z,99869.28
2023-01-21T17:01:26.930Z,99882.88
2023-01-21T17:03:55.484Z,99887.66
2023-01-21T17:06:32.759Z,99896.34
2023-01-21T17:09:04.578Z,99885.53
2023-01-21T17:11:34.860Z,99895.69
2023-01-21T17:14:10.132Z,99894.44
2023-01-21T17:16:39.851Z,99888.38
2023-01-21T17:19:14.708Z,99892.72
2023-01-21T17:21:50.619Z,99902.00
2023-01-21T17:24:24.280Z,99897.28
2023-01-21T17:26:55.599Z,99901.37
2023-01-21T17:29:30.161Z,99889.16
2023-01-21T17:32:25.927Z,99892.47
2023-01-21T17:35:15.298Z,99894.16
2023-01-21T17:37:58.851Z,99895.53
2023-01-21T17:40:31.738Z,99895.72
2023-01-21T17:43:08.019Z,99897.03
2023-01-21T17:45:38.045Z,99892.75
2023-01-21T17:48:11.204Z,99897.97
2023-01-21T17:50:46.683Z,99906.50
2023-01-21T17:53:25.472Z,99911.47
2023-01-21T17:56:05.451Z,99921.62
2023-01-21T17:58:48.935Z,99922.47
2023-01-21T18:01:18.674Z,99919.25
2023-01-21T18:03:47.769Z,99922.13
2023-01-21T18:06:23.054Z,99922.00
2023-01-21T18:08:51.524Z,99915.25
2023-01-21T18:11:19.580Z,99915.38
2023-01-21T18:13:48.261Z,99930.78
2023-01-21T18:16:16.635Z,99939.56
2023-01-21T18:18:44.996Z,99947.03
2023-01-21T18:21:21.982Z,99953.00
2023-01-21T18:23:50.696Z,99942.09
2023-01-21T18:26:30.639Z,99944.75
2023-01-21T18:28:59.172Z,99949.72
2023-01-21T18:31:27.543Z,99964.75
2023-01-21T18:33:57.200Z,99975.16
2023-01-21T18:36:26.080Z,99965.44
2023-01-21T18:38:53.942Z,99960.66
2023-01-21T18:41:22.236Z,99961.63
2023-01-21T18:43:54.809Z,99945.25
2023-01-21T18:46:23.873Z,99955.41
2023-01-21T18:48:52.728Z,99953.00
2023-01-21T18:51:21.702Z,99943.66
2023-01-21T18:53:50.678Z,99947.47
2023-01-21T18:56:20.304Z,99944.38
2023-01-21T18:58:48.858Z,99957.72
2023-01-21T19:01:23.447Z,99952.06
2023-01-21T19:03:54.276Z,99963.97
2023-01-21T19:06:23.220Z,99968.63
2023-01-21T19:08:52.219Z,99969.63
2023-01-21T19:11:20.986Z,99969.78
2023-01-21T19:13:49.495Z,99976.25
2023-01-21T19:16:19.437Z,99980.66
2023-01-21T19:18:49.705Z,99978.78
2023-01-21T19:21:17.908Z,99991.16
2023-01-21T19:23:46.217Z,99985.56
2023-01-21T19:26:14.831Z,99993.00
2023-01-21T19:28:43.363Z,99999.66
2023-01-21T19:31:14.872Z,100008.53
2023-01-21T19:33:46.052Z,100006.97
2023-01-21T19:36:17.831Z,100013.00
2023-01-21T19:38:59.741Z,100013.06
2023-01-21T19:41:28.480Z,100012.59
2023-01-21T19:43:58.052Z,100011.66
2023-01-21T19:46:29.306Z,100006.63
2023-01-21T19:48:59.133Z,100009.22
2023-01-21T19:51:31.602Z,100007.84
2023-01-21T19:54:00.992Z,100008.47
2023-01-21T19:56:29.479Z,100003.69
2023-01-21T19:58:58.026Z,99995.31
2023-01-21T20:01:30.137Z,99995.09
2023-01-21T20:04:00.823Z,99988.28
2023-01-21T20:06:34.497Z,99987.56
2023-01-21T20:09:04.291Z,99979.69
2023-01-21T20:11:32.572Z,99980.88
2023-01-21T20:14:00.909Z,99984.34
2023-01-21T20:16:31.295Z,99989.75
2023-01-21T20:19:02.480Z,99988.94
2023-01-21T20:21:36.241Z,99982.50
2023-01-21T20:24:08.475Z,99986.84
2023-01-21T20:26:37.843Z,99989.03
2023-01-21T20:29:09.993Z,99993.37
2023-01-21T20:31:38.669Z,99994.19
2023-01-21T20:34:09.357Z,99992.44
2023-01-21T20:36:38.742Z,100000.81
2023-01-21T20:39:07.616Z,99996.03
2023-01-21T20:41:37.506Z,99997.16
2023-01-21T20:44:06.087Z,100003.91
2023-01-21T20:46:40.226Z,100005.69
2023-01-21T20:49:11.743Z,100018.56
2023-01-21T20:51:40.758Z,100022.66
2023-01-21T20:54:09.191Z,100018.41
2023-01-21T20:56:38.495Z,100019.59
2023-01-21T20:59:09.498Z,100021.09
2023-01-21T21:01:39.909Z,100017.59
2023-01-21T21:04:08.415Z,100016.06
2023-01-21T21:06:36.714Z,100017.50
2023-01-21T21:09:06.023Z,100004.22
2023-01-21T21:11:35.201Z,100020.75
2023-01-21T21:14:04.141Z,100003.59
2023-01-21T21:16:34.306Z,99993.00
2023-01-21T21:19:04.091Z,100001.19
2023-01-21T21:21:35.284Z,100016.63
2023-01-21T21:24:06.513Z,99999.97
2023-01-21T21:26:37.471Z,100005.81
2023-01-21T21:29:12.090Z,100003.88
2023-01-21T21:31:40.323Z,100015.03
2023-01-21T21:34:10.331Z,100018.34
2023-01-21T21:36:41.892Z,100025.78
2023-01-21T21:39:10.029Z,100019.72
2023-01-21T21:41:57.403Z,100009.09
2023-01-21T21:44:25.909Z,100026.97
2023-01-21T21:47:12.175Z,100022.12
2023-01-21T21:49:40.649Z,100025.44
2023-01-21T21:52:08.517Z,100022.16
2023-01-21T21:54:36.976Z,100026.97
2023-01-21T21:57:04.889Z,100023.44
2023-01-21T21:59:32.553Z,100030.84
2023-01-21T22:02:00.856Z,100043.31
2023-01-21T22:04:28.968Z,100029.09
2023-01-21T22:06:57.799Z,100032.72
2023-01-21T22:09:25.350Z,100031.81
2023-01-21T22:11:53.822Z,100037.56
2023-01-21T22:14:21.472Z,100020.97
2023-01-21T22:16:49.909Z,100022.28
2023-01-21T22:19:18.477Z,100015.81
2023-01-21T22:21:45.919Z,100019.59
2023-01-21T22:24:13.331Z,100018.12
2023-01-21T22:26:41.163Z,100021.25
2023-01-21T22:29:08.630Z,100020.81
2023-01-21T22:31:36.206Z,100015.84
2023-01-21T22:34:04.106Z,100020.53
2023-01-21T22:36:32.201Z,100016.78
2023-01-21T22:38:59.864Z,100017.81
2023-01-21T22:41:28.027Z,100009.38
2023-01-21T22:43:55.729Z,100016.75
2023-01-21T22:46:30.034Z,100022.97
2023-01-21T22:48:58.344Z,100018.12
2023-01-21T22:51:26.669Z,100010.84
2023-01-21T22:53:54.634Z,100011.78
2023-01-21T22:56:39.990Z,100009.03
2023-01-21T22:59:11.833Z,100011.53
2023-01-21T23:01:39.753Z,100006.72
2023-01-21T23:04:07.208Z,100000.03
2023-01-21T23:06:36.883Z,99998.12
2023-01-21T23:09:08.095Z,100009.78
2023-01-21T23:11:38.668Z,100006.47
2023-01-21T23:14:08.794Z,100026.69
2023-01-21T23:16:36.293Z,100034.94
2023-01-21T23:19:03.959Z,100034.50
2023-01-21T23:21:31.712Z,100021.19
2023-01-21T23:23:59.166Z,100016.00
2023-01-21T23:26:26.563Z,100017.72
2023-01-21T23:28:56.014Z,100023.63
2023-01-21T23:31:24.141Z,100017.75
2023-01-21T23:33:52.715Z,100026.16
2023-01-21T23:36:20.447Z,100032.22
2023-01-21T23:38:47.869Z,100034.56
2023-01-21T23:41:19.848Z,100032.59
2023-01-21T23:43:47.806Z,100006.13
2023-01-21T23:46:16.845Z,100003.88
2023-01-21T23:48:44.408Z,100027.97
2023-01-21T23:51:14.114Z,100020.37
2023-01-21T23:53:41.588Z,100014.53
2023-01-21T23:56:22.199Z,100021.56
2023-01-21T23:58:50.422Z,100019.13
